createdAt,value
2022-12-13T00:01:45.405Z,56.20
2022-12-13T00:03:46.940Z,56.34
2022-12-13T00:05:48.308Z,56.65
2022-12-13T00:07:49.677Z,56.48
2022-12-13T00:09:51.019Z,56.29
2022-12-13T00:11:52.336Z,56.50
2022-12-13T00:13:53.669Z,56.51
2022-12-13T00:15:55.098Z,56.46
2022-12-13T00:17:56.393Z,56.50
2022-12-13T00:19:57.971Z,56.22
2022-12-13T00:21:59.265Z,56.30
2022-12-13T00:24:00.596Z,56.40
2022-12-13T00:26:01.887Z,56.85
2022-12-13T00:28:03.431Z,56.65
2022-12-13T00:30:04.724Z,56.62
2022-12-13T00:32:06.049Z,57.14
2022-12-13T00:34:07.396Z,56.80
2022-12-13T00:36:08.725Z,56.76
2022-12-13T00:38:10.057Z,56.40
2022-12-13T00:40:11.352Z,56.58
2022-12-13T00:42:12.799Z,56.80
2022-12-13T00:44:14.153Z,56.50
2022-12-13T00:46:15.542Z,56.67
2022-12-13T00:48:16.839Z,56.39
2022-12-13T00:50:18.174Z,56.43
2022-12-13T00:52:19.492Z,56.45
2022-12-13T00:54:20.851Z,56.68
2022-12-13T00:56:23.434Z,56.82
2022-12-13T00:58:24.767Z,56.90
2022-12-13T01:00:26.061Z,56.95
2022-12-13T01:02:27.360Z,56.94
2022-12-13T01:04:28.676Z,57.17
2022-12-13T01:06:29.997Z,56.76
2022-12-13T01:08:31.315Z,56.98
2022-12-13T01:10:32.661Z,57.48
2022-12-13T01:12:33.981Z,57.56
2022-12-13T01:14:35.393Z,57.37
2022-12-13T01:16:36.742Z,57.48
2022-12-13T01:18:38.084Z,57.92
2022-12-13T01:20:39.411Z,58.23
2022-12-13T01:22:40.705Z,58.53
2022-12-13T01:24:42.000Z,58.44
2022-12-13T01:26:43.339Z,58.41
2022-12-13T01:28:44.726Z,58.54
2022-12-13T01:30:46.109Z,58.71
2022-12-13T01:32:47.428Z,58.40
2022-12-13T01:34:48.716Z,58.45
2022-12-13T01:36:50.184Z,58.13
2022-12-13T01:38:51.512Z,58.54
2022-12-13T01:40:59.541Z,58.44
2022-12-13T01:43:00.827Z,58.63
2022-12-13T01:45:02.624Z,58.83
2022-12-13T01:47:03.908Z,58.51
2022-12-13T01:49:05.257Z,58.50
2022-12-13T01:51:06.637Z,59.02
2022-12-13T01:53:07.924Z,58.49
2022-12-13T01:55:09.327Z,59.09
2022-12-13T01:57:10.620Z,58.87
2022-12-13T01:59:11.915Z,59.11
2022-12-13T02:01:13.285Z,58.90
2022-12-13T02:03:21.301Z,59.07
2022-12-13T02:05:23.247Z,58.93
2022-12-13T02:07:24.638Z,58.89
2022-12-13T02:09:25.998Z,58.85
2022-12-13T02:11:27.724Z,58.70
2022-12-13T02:13:29.032Z,58.85
2022-12-13T02:15:30.315Z,58.59
2022-12-13T02:17:31.690Z,58.81
2022-12-13T02:19:32.991Z,58.91
2022-12-13T02:21:34.356Z,58.50
2022-12-13T02:23:36.467Z,58.56
2022-12-13T02:25:37.755Z,58.66
2022-12-13T02:27:42.511Z,59.14
2022-12-13T02:29:44.476Z,59.14
2022-12-13T02:31:45.825Z,59.01
2022-12-13T02:33:47.225Z,58.98
2022-12-13T02:35:48.551Z,59.23
2022-12-13T02:37:54.341Z,59.06
2022-12-13T02:39:55.708Z,58.70
2022-12-13T02:41:57.033Z,59.21
2022-12-13T02:44:01.289Z,59.54
2022-12-13T02:46:03.098Z,58.97
2022-12-13T02:48:04.583Z,58.80
2022-12-13T02:50:05.924Z,59.31
2022-12-13T02:52:07.260Z,59.06
2022-12-13T02:54:08.745Z,58.95
2022-12-13T02:56:10.046Z,58.96
2022-12-13T02:58:11.336Z,59.21
2022-12-13T03:00:12.716Z,58.94
2022-12-13T03:02:14.131Z,59.14
2022-12-13T03:04:32.708Z,58.81
2022-12-13T03:06:34.786Z,59.22
2022-12-13T03:08:36.205Z,59.21
2022-12-13T03:10:37.493Z,59.06
2022-12-13T03:12:57.481Z,59.16
2022-12-13T03:14:58.792Z,59.06
2022-12-13T03:17:00.085Z,58.67
2022-12-13T03:19:01.436Z,58.80
2022-12-13T03:21:02.768Z,58.62
2022-12-13T03:23:04.088Z,58.89
2022-12-13T03:25:05.415Z,58.94
2022-12-13T03:27:06.732Z,58.72
2022-12-13T03:29:08.061Z,58.97
2022-12-13T03:31:09.488Z,58.80
2022-12-13T03:33:10.822Z,59.40
2022-12-13T03:35:21.816Z,59.11
2022-12-13T03:37:23.683Z,59.19
2022-12-13T03:39:24.991Z,59.03
2022-12-13T03:41:31.505Z,59.37
2022-12-13T03:43:32.795Z,59.04
2022-12-13T03:45:34.105Z,59.04
2022-12-13T03:47:35.521Z,58.73
2022-12-13T03:49:36.816Z,58.93
2022-12-13T03:51:38.102Z,58.55
2022-12-13T03:53:39.476Z,58.40
2022-12-13T03:55:40.767Z,42.27
2022-12-13T03:57:42.125Z,40.22
2022-12-13T03:59:43.410Z,42.49
2022-12-13T04:01:44.770Z,49.60
2022-12-13T04:03:46.260Z,46.65
2022-12-13T04:05:47.560Z,46.43
2022-12-13T04:07:48.913Z,47.00
2022-12-13T04:09:50.272Z,46.94
2022-12-13T04:12:10.137Z,47.52
2022-12-13T04:14:11.967Z,47.67
2022-12-13T04:16:13.344Z,48.07
2022-12-13T04:18:14.740Z,48.13
2022-12-13T04:20:16.076Z,48.42
2022-12-13T04:22:23.269Z,48.33
2022-12-13T04:24:31.709Z,48.65
2022-12-13T04:26:33.609Z,48.56
2022-12-13T04:28:34.896Z,48.56
2022-12-13T04:30:36.176Z,49.14
2022-12-13T04:32:37.469Z,49.23
2022-12-13T04:34:38.760Z,49.41
2022-12-13T04:36:40.093Z,49.42
2022-12-13T04:38:41.380Z,49.30
2022-12-13T04:40:42.672Z,49.48
2022-12-13T04:42:44.255Z,49.73
2022-12-13T04:44:46.310Z,50.16
2022-12-13T04:46:47.692Z,50.23
2022-12-13T04:48:49.024Z,50.67
2022-12-13T04:50:50.321Z,50.70
2022-12-13T04:52:51.606Z,50.70
2022-12-13T04:54:55.731Z,51.07
2022-12-13T04:56:57.628Z,51.26
2022-12-13T04:58:59.041Z,51.24
2022-12-13T05:01:00.438Z,51.61
2022-12-13T05:03:02.757Z,51.89
2022-12-13T05:05:04.036Z,51.92
2022-12-13T05:07:05.328Z,52.05
2022-12-13T05:09:11.406Z,52.28
2022-12-13T05:11:13.036Z,52.29
2022-12-13T05:13:14.359Z,52.37
2022-12-13T05:15:15.758Z,52.74
2022-12-13T05:17:17.219Z,52.84
2022-12-13T05:19:18.545Z,52.98
2022-12-13T05:21:19.833Z,52.88
2022-12-13T05:23:22.610Z,53.02
2022-12-13T05:25:24.376Z,52.92
2022-12-13T05:27:26.896Z,53.22
2022-12-13T05:29:28.400Z,53.26
2022-12-13T05:31:29.749Z,53.21
2022-12-13T05:33:31.044Z,53.28
2022-12-13T05:35:32.440Z,53.42
2022-12-13T05:37:34.847Z,53.35
2022-12-13T05:39:36.307Z,53.13
2022-12-13T05:41:37.701Z,53.51
2022-12-13T05:43:42.712Z,53.32
2022-12-13T05:45:44.973Z,53.14
2022-12-13T05:47:47.954Z,53.28
2022-12-13T05:49:49.277Z,53.18
2022-12-13T05:51:50.596Z,53.15
2022-12-13T05:53:53.506Z,52.99
2022-12-13T05:55:54.954Z,53.01
2022-12-13T05:58:02.319Z,53.09
2022-12-13T06:00:03.990Z,53.19
2022-12-13T06:02:05.426Z,53.03
2022-12-13T06:04:07.055Z,52.95
2022-12-13T06:06:08.643Z,52.93
2022-12-13T06:08:24.361Z,53.02
2022-12-13T06:10:34.000Z,52.96
2022-12-13T06:12:35.825Z,52.85
2022-12-13T06:14:44.741Z,52.63
2022-12-13T06:16:46.069Z,52.46
2022-12-13T06:18:47.449Z,52.38
2022-12-13T06:20:52.028Z,52.14
2022-12-13T06:22:53.329Z,51.79
2022-12-13T06:24:55.029Z,51.60
2022-12-13T06:26:56.369Z,51.75
2022-12-13T06:28:57.703Z,51.56
2022-12-13T06:30:59.066Z,51.80
2022-12-13T06:33:00.427Z,51.68
2022-12-13T06:35:01.709Z,51.84
2022-12-13T06:37:22.995Z,52.03
2022-12-13T06:39:24.920Z,52.23
2022-12-13T06:41:33.881Z,52.18
2022-12-13T06:43:35.217Z,52.53
2022-12-13T06:45:36.965Z,52.62
2022-12-13T06:47:38.264Z,52.60
2022-12-13T06:49:39.888Z,52.71
2022-12-13T06:51:41.445Z,52.72
2022-12-13T06:53:42.733Z,52.70
2022-12-13T06:55:44.061Z,52.71
2022-12-13T06:57:45.343Z,52.95
2022-12-13T06:59:46.630Z,53.07
2022-12-13T07:01:48.008Z,52.87
2022-12-13T07:03:52.168Z,53.04
2022-12-13T07:05:56.869Z,53.02
2022-12-13T07:07:59.786Z,53.20
2022-12-13T07:10:01.089Z,53.12
2022-12-13T07:12:02.420Z,52.97
2022-12-13T07:14:07.747Z,53.07
2022-12-13T07:16:09.130Z,52.93
2022-12-13T07:18:10.446Z,53.07
2022-12-13T07:20:13.587Z,53.39
2022-12-13T07:22:14.913Z,53.04
2022-12-13T07:24:16.240Z,53.01
2022-12-13T07:26:17.537Z,53.00
2022-12-13T07:28:18.844Z,52.88
2022-12-13T07:30:20.192Z,52.89
2022-12-13T07:32:21.492Z,52.85
2022-12-13T07:34:22.797Z,52.91
2022-12-13T07:36:24.132Z,52.86
2022-12-13T07:38:25.447Z,52.61
2022-12-13T07:40:26.750Z,52.65
2022-12-13T07:42:28.230Z,52.50
2022-12-13T07:44:29.545Z,52.18
2022-12-13T07:46:33.263Z,52.29
2022-12-13T07:48:35.001Z,51.99
2022-12-13T07:50:37.626Z,51.82
2022-12-13T07:52:39.273Z,51.67
2022-12-13T07:54:40.739Z,51.41
2022-12-13T07:56:42.057Z,51.26
2022-12-13T07:58:44.067Z,51.20
2022-12-13T08:00:45.998Z,51.00
2022-12-13T08:02:47.961Z,51.48
2022-12-13T08:04:54.704Z,51.33
2022-12-13T08:06:56.727Z,51.27
2022-12-13T08:08:58.059Z,51.36
2022-12-13T08:11:01.499Z,51.53
2022-12-13T08:13:03.162Z,51.53
2022-12-13T08:15:09.349Z,51.68
2022-12-13T08:17:13.685Z,51.87
2022-12-13T08:19:14.982Z,51.72
2022-12-13T08:21:51.912Z,51.49
2022-12-13T08:23:37.581Z,51.86
2022-12-13T08:25:38.871Z,52.01
2022-12-13T08:27:43.132Z,51.76
2022-12-13T08:29:44.533Z,52.10
2022-12-13T08:31:46.109Z,51.95
2022-12-13T08:33:48.612Z,52.10
2022-12-13T08:35:49.915Z,52.18
2022-12-13T08:37:51.277Z,52.17
2022-12-13T08:39:52.569Z,52.10
2022-12-13T08:41:53.854Z,52.26
2022-12-13T08:43:55.149Z,52.12
2022-12-13T08:46:01.304Z,52.11
2022-12-13T08:48:03.402Z,52.19
2022-12-13T08:50:04.796Z,52.13
2022-12-13T08:52:06.148Z,52.19
2022-12-13T08:54:10.252Z,52.19
2022-12-13T08:56:12.259Z,51.96
2022-12-13T08:58:14.269Z,52.08
2022-12-13T09:00:15.564Z,52.10
2022-12-13T09:02:17.222Z,51.89
2022-12-13T09:04:18.600Z,52.09
2022-12-13T09:06:33.177Z,51.91
2022-12-13T09:08:35.101Z,51.88
2022-12-13T09:10:38.494Z,51.43
2022-12-13T09:12:41.694Z,51.80
2022-12-13T09:14:45.348Z,51.59
2022-12-13T09:16:51.145Z,51.49
2022-12-13T09:18:55.162Z,51.70
2022-12-13T09:21:11.335Z,51.31
2022-12-13T09:23:23.715Z,51.13
2022-12-13T09:25:25.500Z,50.78
2022-12-13T09:27:27.646Z,50.76
2022-12-13T09:29:30.108Z,50.95
2022-12-13T09:31:34.840Z,50.75
2022-12-13T09:33:41.168Z,50.90
2022-12-13T09:35:43.149Z,50.74
2022-12-13T09:37:46.198Z,50.97
2022-12-13T09:39:47.806Z,51.08
2022-12-13T09:42:00.642Z,50.95
2022-12-13T09:44:02.858Z,51.06
2022-12-13T09:46:04.233Z,51.29
2022-12-13T09:48:14.780Z,51.13
2022-12-13T09:50:25.161Z,51.42
2022-12-13T09:52:33.343Z,51.50
2022-12-13T09:54:36.519Z,51.56
2022-12-13T09:56:37.936Z,51.70
2022-12-13T09:58:39.268Z,51.69
2022-12-13T10:00:40.674Z,51.51
2022-12-13T10:02:41.994Z,51.60
2022-12-13T10:04:46.336Z,51.51
2022-12-13T10:06:47.617Z,51.64
2022-12-13T10:08:48.911Z,51.44
2022-12-13T10:10:50.204Z,51.52
2022-12-13T10:12:51.588Z,51.85
2022-12-13T10:14:53.112Z,51.66
2022-12-13T10:16:54.518Z,51.58
2022-12-13T10:18:56.367Z,51.42
2022-12-13T10:20:57.657Z,51.48
2022-12-13T10:23:52.580Z,51.46
2022-12-13T10:25:20.249Z,51.53
2022-12-13T10:27:21.640Z,51.35
2022-12-13T10:29:23.166Z,51.47
2022-12-13T10:31:24.480Z,51.33
2022-12-13T10:33:26.037Z,51.40
2022-12-13T10:35:27.579Z,51.24
2022-12-13T10:37:28.897Z,51.28
2022-12-13T10:39:30.188Z,51.21
2022-12-13T10:41:31.528Z,51.26
2022-12-13T10:43:33.793Z,51.16
2022-12-13T10:45:35.162Z,51.00
2022-12-13T10:47:36.864Z,51.16
2022-12-13T10:49:38.185Z,50.64
2022-12-13T10:51:39.516Z,50.50
2022-12-13T10:53:47.149Z,50.59
2022-12-13T10:55:49.244Z,50.47
2022-12-13T10:57:50.572Z,50.53
2022-12-13T10:59:51.863Z,50.42
2022-12-13T11:01:53.235Z,50.34
2022-12-13T11:03:54.837Z,50.43
2022-12-13T11:06:03.433Z,50.67
2022-12-13T11:08:04.722Z,50.76
2022-12-13T11:10:06.373Z,50.88
2022-12-13T11:12:16.532Z,50.84
2022-12-13T11:14:17.949Z,50.92
2022-12-13T11:16:33.599Z,51.03
2022-12-13T11:18:34.976Z,51.06
2022-12-13T11:20:36.265Z,50.81
2022-12-13T11:22:37.676Z,51.11
2022-12-13T11:24:39.124Z,51.17
2022-12-13T11:26:42.912Z,51.34
2022-12-13T11:28:44.655Z,51.28
2022-12-13T11:30:46.210Z,51.53
2022-12-13T11:32:47.524Z,51.36
2022-12-13T11:34:49.046Z,51.42
2022-12-13T11:36:50.552Z,51.41
2022-12-13T11:38:57.642Z,51.41
2022-12-13T11:40:59.938Z,51.15
2022-12-13T11:43:01.265Z,51.31
2022-12-13T11:45:02.599Z,51.34
2022-12-13T11:47:03.997Z,51.25
2022-12-13T11:49:05.285Z,51.12
2022-12-13T11:51:06.663Z,51.28
2022-12-13T11:53:07.952Z,51.34
2022-12-13T11:55:09.236Z,51.23
2022-12-13T11:57:10.863Z,51.42
2022-12-13T11:59:22.033Z,51.15
2022-12-13T12:01:27.642Z,50.75
2022-12-13T12:03:29.259Z,51.09
2022-12-13T12:05:30.856Z,51.10
2022-12-13T12:07:33.595Z,51.02
2022-12-13T12:09:36.473Z,50.83
2022-12-13T12:11:37.765Z,50.66
2022-12-13T12:13:51.074Z,50.58
2022-12-13T12:15:55.264Z,50.43
2022-12-13T12:17:56.729Z,50.32
2022-12-13T12:19:58.053Z,50.24
2022-12-13T12:22:15.525Z,49.77
2022-12-13T12:24:17.216Z,50.04
2022-12-13T12:26:18.553Z,50.07
2022-12-13T12:28:19.839Z,50.16
2022-12-13T12:30:22.924Z,50.12
2022-12-13T12:32:24.948Z,50.38
2022-12-13T12:34:27.245Z,50.56
2022-12-13T12:36:29.447Z,50.53
2022-12-13T12:38:30.800Z,50.29
2022-12-13T12:40:46.185Z,50.66
2022-12-13T12:43:14.187Z,50.57
2022-12-13T12:45:26.987Z,50.81
2022-12-13T12:49:58.040Z,51.11
2022-12-13T12:51:59.337Z,50.85
2022-12-13T12:54:00.632Z,50.97
2022-12-13T12:56:01.953Z,51.10
2022-12-13T12:58:03.276Z,50.95
2022-12-13T13:00:04.564Z,50.97
2022-12-13T13:02:07.571Z,50.98
2022-12-13T13:04:09.134Z,51.14
2022-12-13T13:06:10.437Z,51.05
2022-12-13T13:08:11.728Z,51.29
2022-12-13T13:10:16.729Z,50.88
2022-12-13T13:12:30.433Z,50.84
2022-12-13T13:14:32.105Z,51.07
2022-12-13T13:16:33.682Z,51.22
2022-12-13T13:18:38.072Z,51.08
2022-12-13T13:20:39.429Z,50.82
2022-12-13T13:22:53.701Z,50.73
2022-12-13T13:25:00.044Z,50.89
2022-12-13T13:27:01.391Z,50.88
2022-12-13T13:29:02.725Z,50.85
2022-12-13T13:31:04.137Z,51.19
2022-12-13T13:33:05.501Z,50.62
2022-12-13T13:35:06.821Z,50.53
2022-12-13T13:37:08.157Z,50.55
2022-12-13T13:39:09.449Z,50.81
2022-12-13T13:41:10.741Z,50.84
2022-12-13T13:43:12.633Z,51.22
2022-12-13T13:45:13.947Z,50.97
2022-12-13T13:47:15.480Z,50.88
2022-12-13T13:49:16.814Z,50.67
2022-12-13T13:51:18.192Z,50.87
2022-12-13T13:53:20.269Z,50.82
2022-12-13T13:55:21.737Z,50.62
2022-12-13T13:57:38.569Z,50.45
2022-12-13T13:59:44.410Z,50.54
2022-12-13T14:01:45.738Z,50.55
2022-12-13T14:03:47.115Z,50.35
2022-12-13T14:05:48.524Z,50.34
2022-12-13T14:07:49.811Z,50.29
2022-12-13T14:09:51.104Z,50.28
2022-12-13T14:11:52.439Z,50.29
2022-12-13T14:13:53.716Z,50.42
2022-12-13T14:15:55.035Z,50.38
2022-12-13T14:17:56.362Z,50.31
2022-12-13T14:19:57.665Z,50.44
2022-12-13T14:21:59.024Z,50.47
2022-12-13T14:24:00.330Z,50.50
2022-12-13T14:26:01.657Z,50.37
2022-12-13T14:28:02.966Z,50.44
2022-12-13T14:30:26.706Z,50.19
2022-12-13T14:32:26.316Z,50.39
2022-12-13T14:34:28.616Z,50.48
2022-12-13T14:36:32.165Z,50.55
2022-12-13T14:38:33.586Z,50.97
2022-12-13T14:40:35.019Z,50.48
2022-12-13T14:42:36.433Z,50.51
2022-12-13T14:44:37.882Z,50.43
2022-12-13T14:46:39.200Z,50.44
2022-12-13T14:48:40.578Z,50.52
2022-12-13T14:50:41.873Z,50.45
2022-12-13T14:52:43.524Z,50.50
2022-12-13T14:54:44.844Z,50.43
2022-12-13T14:56:46.273Z,50.49
2022-12-13T14:58:47.563Z,50.44
2022-12-13T15:00:49.324Z,50.13
2022-12-13T15:02:53.492Z,50.27
2022-12-13T15:04:57.736Z,50.22
2022-12-13T15:06:59.076Z,50.07
2022-12-13T15:09:00.409Z,50.08
2022-12-13T15:11:06.680Z,50.10
2022-12-13T15:13:10.810Z,50.10
2022-12-13T15:15:12.138Z,50.07
2022-12-13T15:17:13.460Z,50.02
2022-12-13T15:19:29.609Z,49.95
2022-12-13T15:21:33.481Z,50.08
2022-12-13T15:23:34.776Z,50.02
2022-12-13T15:25:36.117Z,50.00
2022-12-13T15:27:37.396Z,50.00
2022-12-13T15:29:38.686Z,50.13
2022-12-13T15:31:43.111Z,50.03
2022-12-13T15:33:51.323Z,50.03
2022-12-13T15:35:52.753Z,50.13
2022-12-13T15:37:54.080Z,50.20
2022-12-13T15:39:55.373Z,50.26
2022-12-13T15:41:59.728Z,50.10
2022-12-13T15:44:01.065Z,49.98
2022-12-13T15:46:02.741Z,50.07
2022-12-13T15:48:04.074Z,50.28
2022-12-13T15:50:05.465Z,50.45
2022-12-13T15:52:06.773Z,50.54
2022-12-13T15:54:08.096Z,50.35
2022-12-13T15:56:09.932Z,50.14
2022-12-13T15:58:11.285Z,50.33
2022-12-13T16:00:19.469Z,50.56
2022-12-13T16:02:31.157Z,50.34
2022-12-13T16:04:35.224Z,50.36
2022-12-13T16:06:36.519Z,50.24
2022-12-13T16:08:37.848Z,50.31
2022-12-13T16:10:39.140Z,50.26
2022-12-13T16:12:40.494Z,49.94
2022-12-13T16:14:50.135Z,49.87
2022-12-13T16:16:51.569Z,50.15
2022-12-13T16:18:53.549Z,50.10
2022-12-13T16:20:54.884Z,49.79
2022-12-13T16:22:59.840Z,49.65
2022-12-13T16:25:01.523Z,49.81
2022-12-13T16:27:08.223Z,49.57
2022-12-13T16:29:13.293Z,49.33
2022-12-13T16:31:15.007Z,49.81
2022-12-13T16:33:26.640Z,49.37
2022-12-13T16:35:29.012Z,49.43
2022-12-13T16:37:33.040Z,49.50
2022-12-13T16:39:34.328Z,49.39
2022-12-13T16:41:35.656Z,49.46
2022-12-13T16:43:37.238Z,49.56
2022-12-13T16:45:42.550Z,49.43
2022-12-13T16:47:48.281Z,49.76
2022-12-13T16:49:50.976Z,49.12
2022-12-13T16:51:52.268Z,48.53
2022-12-13T16:53:56.456Z,48.01
2022-12-13T16:56:00.779Z,48.01
2022-12-13T16:58:02.244Z,47.52
2022-12-13T17:00:03.607Z,47.14
2022-12-13T17:02:04.986Z,47.36
2022-12-13T17:04:11.886Z,47.59
2022-12-13T17:06:16.424Z,46.77
2022-12-13T17:08:17.723Z,46.33
2022-12-13T17:10:19.048Z,46.61
2022-12-13T17:12:20.336Z,46.36
2022-12-13T17:14:21.642Z,46.87
2022-12-13T17:16:22.994Z,46.78
2022-12-13T17:18:24.289Z,47.39
2022-12-13T17:20:25.705Z,47.48
2022-12-13T17:22:27.069Z,47.98
2022-12-13T17:24:31.401Z,47.60
2022-12-13T17:26:32.734Z,47.84
2022-12-13T17:28:34.033Z,48.83
2022-12-13T17:30:35.988Z,48.16
2022-12-13T17:32:37.797Z,48.42
2022-12-13T17:34:39.151Z,47.73
2022-12-13T17:36:40.482Z,49.54
2022-12-13T17:38:41.776Z,49.38
2022-12-13T17:42:45.504Z,48.83
2022-12-13T17:44:46.934Z,48.56
2022-12-13T17:46:54.649Z,48.60
2022-12-13T17:48:56.623Z,49.19
2022-12-13T17:50:57.911Z,49.23
2022-12-13T17:52:59.209Z,49.63
2022-12-13T17:55:01.057Z,50.34
2022-12-13T17:57:05.026Z,49.85
2022-12-13T17:59:06.426Z,49.60
2022-12-13T18:01:07.774Z,50.23
2022-12-13T18:03:09.105Z,50.45
2022-12-13T18:05:17.713Z,50.49
2022-12-13T18:07:22.334Z,50.66
2022-12-13T18:09:23.620Z,50.97
2022-12-13T18:11:34.166Z,50.99
2022-12-13T18:13:36.100Z,50.62
2022-12-13T18:15:37.515Z,50.64
2022-12-13T18:18:09.484Z,50.49
2022-12-13T18:20:01.053Z,50.69
2022-12-13T18:22:05.160Z,50.27
2022-12-13T18:24:06.552Z,50.26
2022-12-13T18:26:07.861Z,49.80
2022-12-13T18:28:09.496Z,49.89
2022-12-13T18:30:10.824Z,50.30
2022-12-13T18:32:13.402Z,49.80
2022-12-13T18:34:17.633Z,49.84
2022-12-13T18:36:18.944Z,49.61
2022-12-13T18:38:24.367Z,49.44
2022-12-13T18:40:25.837Z,49.41
2022-12-13T18:42:27.212Z,49.53
2022-12-13T18:44:28.545Z,49.37
2022-12-13T18:46:30.032Z,49.68
2022-12-13T18:48:31.636Z,49.10
2022-12-13T18:50:32.928Z,48.76
2022-12-13T18:52:34.804Z,48.67
2022-12-13T18:54:36.137Z,49.11
2022-12-13T18:56:37.456Z,48.88
2022-12-13T18:58:39.440Z,49.03
2022-12-13T19:00:40.778Z,48.81
2022-12-13T19:02:42.227Z,49.15
2022-12-13T19:04:55.094Z,49.17
2022-12-13T19:07:03.101Z,49.33
2022-12-13T19:09:04.485Z,49.18
2022-12-13T19:11:05.778Z,49.05
2022-12-13T19:13:07.088Z,49.47
2022-12-13T19:15:08.427Z,49.73
2022-12-13T19:17:09.729Z,50.00
2022-12-13T19:19:11.019Z,50.34
2022-12-13T19:21:15.116Z,50.39
2022-12-13T19:23:19.416Z,50.48
2022-12-13T19:25:20.805Z,51.25
2022-12-13T19:27:22.099Z,50.81
2022-12-13T19:29:26.536Z,51.15
2022-12-13T19:31:31.487Z,51.19
2022-12-13T19:33:33.279Z,51.17
2022-12-13T19:35:34.577Z,51.27
2022-12-13T19:37:36.462Z,51.91
2022-12-13T19:39:37.751Z,51.18
2022-12-13T19:41:39.129Z,51.03
2022-12-13T19:43:40.417Z,50.89
2022-12-13T19:45:41.741Z,50.61
2022-12-13T19:47:48.626Z,50.46
2022-12-13T19:49:50.020Z,50.61
2022-12-13T19:51:51.352Z,49.55
2022-12-13T19:53:52.687Z,49.14
2022-12-13T19:55:54.308Z,48.87
2022-12-13T19:57:55.671Z,49.07
2022-12-13T19:59:59.641Z,48.76
2022-12-13T20:02:01.145Z,48.40
2022-12-13T20:04:02.605Z,48.50
2022-12-13T20:06:03.935Z,48.21
2022-12-13T20:08:05.278Z,48.02
2022-12-13T20:10:09.327Z,48.45
2022-12-13T20:12:10.632Z,47.95
2022-12-13T20:14:11.962Z,48.44
2022-12-13T20:16:13.299Z,48.76
2022-12-13T20:18:14.626Z,48.86
2022-12-13T20:20:19.030Z,49.00
2022-12-13T20:22:20.369Z,49.76
2022-12-13T20:24:22.092Z,49.95
2022-12-13T20:26:23.382Z,49.79
2022-12-13T20:28:24.830Z,50.22
2022-12-13T20:30:26.159Z,50.50
2022-12-13T20:32:27.445Z,50.58
2022-12-13T20:34:28.769Z,50.64
2022-12-13T20:36:31.263Z,51.21
2022-12-13T20:38:32.681Z,52.54
2022-12-13T20:40:33.970Z,50.91
2022-12-13T20:42:35.308Z,51.15
2022-12-13T20:44:36.658Z,51.20
2022-12-13T20:46:38.152Z,51.02
2022-12-13T20:48:39.501Z,51.70
2022-12-13T20:50:40.836Z,51.87
2022-12-13T20:52:45.179Z,51.86
2022-12-13T20:54:55.589Z,51.86
2022-12-13T20:56:59.805Z,51.86
2022-12-13T20:59:01.136Z,52.13
2022-12-13T21:01:02.540Z,51.81
2022-12-13T21:03:03.993Z,51.16
2022-12-13T21:05:05.282Z,51.05
2022-12-13T21:07:06.624Z,50.75
2022-12-13T21:09:07.911Z,50.55
2022-12-13T21:11:24.588Z,50.39
2022-12-13T21:13:26.201Z,49.78
2022-12-13T21:15:28.028Z,49.53
2022-12-13T21:17:29.470Z,48.99
2022-12-13T21:19:39.430Z,49.00
2022-12-13T21:21:44.250Z,48.50
2022-12-13T21:23:45.580Z,48.09
2022-12-13T21:25:48.067Z,48.01
2022-12-13T21:27:49.504Z,48.12
2022-12-13T21:29:50.869Z,48.14
2022-12-13T21:31:55.290Z,48.26
2022-12-13T21:33:56.709Z,48.48
2022-12-13T21:35:58.036Z,48.70
2022-12-13T21:38:05.520Z,48.86
2022-12-13T21:40:07.016Z,49.27
2022-12-13T21:42:09.483Z,48.89
2022-12-13T21:44:10.801Z,49.30
2022-12-13T21:46:12.167Z,32.54
2022-12-13T21:48:13.824Z,42.47
2022-12-13T21:50:15.111Z,42.05
2022-12-13T21:52:16.580Z,41.14
2022-12-13T21:54:17.975Z,41.95
2022-12-13T21:56:48.569Z,42.60
2022-12-13T21:59:08.477Z,43.85
2022-12-13T22:01:09.822Z,44.76
2022-12-13T22:03:11.141Z,45.14
2022-12-13T22:05:12.470Z,45.84
2022-12-13T22:07:13.834Z,45.86
2022-12-13T22:09:15.164Z,45.93
2022-12-13T22:11:21.392Z,45.89
2022-12-13T22:13:23.072Z,45.96
2022-12-13T22:15:25.408Z,46.34
2022-12-13T22:17:34.310Z,46.73
2022-12-13T22:19:36.284Z,46.43
2022-12-13T22:21:37.609Z,46.88
2022-12-13T22:23:38.895Z,46.89
2022-12-13T22:25:40.225Z,47.43
2022-12-13T22:27:41.569Z,47.32
2022-12-13T22:29:42.948Z,47.29
2022-12-13T22:31:44.305Z,47.62
2022-12-13T22:33:50.428Z,47.88
2022-12-13T22:35:51.726Z,47.46
2022-12-13T22:37:53.794Z,47.70
2022-12-13T22:39:57.036Z,48.03
2022-12-13T22:41:58.332Z,48.47
2022-12-13T22:43:59.621Z,48.69
2022-12-13T22:46:01.035Z,49.14
2022-12-13T22:48:02.355Z,49.84
2022-12-13T22:50:03.652Z,50.02
2022-12-13T22:52:05.248Z,49.59
2022-12-13T22:54:06.579Z,49.60
2022-12-13T22:56:07.904Z,50.21
2022-12-13T22:58:09.189Z,50.54
2022-12-13T23:00:10.548Z,50.48
2022-12-13T23:02:11.943Z,50.73
2022-12-13T23:04:13.408Z,50.83
2022-12-13T23:06:14.753Z,51.27
2022-12-13T23:08:16.049Z,51.24
2022-12-13T23:10:36.122Z,51.66
2022-12-13T23:12:55.965Z,51.79
2022-12-13T23:14:57.265Z,51.94
2022-12-13T23:16:58.627Z,51.74
2022-12-13T23:19:24.082Z,51.85
2022-12-13T23:21:21.336Z,51.84
2022-12-13T23:23:22.680Z,52.11
2022-12-13T23:25:23.970Z,51.63
2022-12-13T23:27:25.299Z,51.02
2022-12-13T23:29:26.624Z,51.23
2022-12-13T23:31:27.924Z,50.81
2022-12-13T23:33:29.221Z,50.38
2022-12-13T23:35:30.512Z,50.39
2022-12-13T23:37:31.805Z,50.06
2022-12-13T23:39:33.193Z,49.86
2022-12-13T23:41:34.523Z,50.45
2022-12-13T23:43:35.861Z,50.07
2022-12-13T23:45:37.148Z,50.15
2022-12-13T23:47:38.459Z,50.41
2022-12-13T23:49:39.949Z,50.39
2022-12-13T23:51:41.863Z,50.11
2022-12-13T23:53:43.160Z,50.68
2022-12-13T23:55:44.480Z,50.79
2022-12-13T23:57:50.500Z,50.62
2022-12-13T23:59:52.162Z,51.02
